createdAt,value
2019-03-18T05:01:25.570Z,4.10
2019-03-18T05:12:16.981Z,4.10
2019-03-18T05:27:15.278Z,4.10
2019-03-18T06:17:17.842Z,4.80
2019-03-18T06:24:45.561Z,4.84
2019-03-18T06:25:19.991Z,4.84
2019-03-18T06:31:16.993Z,4.89
2019-03-18T06:41:28.547Z,4.98
2019-03-18T06:42:39.507Z,5.05
2019-03-18T06:43:35.035Z,5.02
2019-03-18T06:46:16.866Z,5.07
2019-03-18T07:05:13.156Z,5.37
2019-03-18T07:05:56.115Z,5.46
2019-03-18T07:06:32.722Z,5.40
2019-03-18T07:08:06.558Z,5.38
2019-03-18T07:10:29.360Z,5.27
2019-03-18T07:11:06.877Z,5.31
2019-03-18T07:12:08.808Z,5.30
2019-03-18T07:13:05.568Z,5.35
2019-03-18T07:14:33.811Z,5.37
2019-03-18T07:15:30.449Z,5.30
2019-03-18T07:17:57.165Z,5.12
2019-03-18T07:18:40.237Z,5.12
2019-03-18T07:19:39.457Z,5.09
2019-03-18T07:20:41.677Z,5.10
2019-03-18T07:23:29.202Z,5.07
2019-03-18T07:24:32.835Z,5.12
2019-03-18T07:41:07.224Z,5.28
2019-03-18T07:41:39.837Z,5.30
2019-03-18T07:43:03.963Z,5.31
2019-03-18T07:55:01.842Z,5.59
2019-03-18T07:56:22.452Z,5.68
2019-03-18T07:58:40.065Z,5.75
2019-03-18T08:03:03.324Z,5.63
2019-03-18T08:04:00.299Z,5.74
2019-03-18T08:05:13.377Z,5.74
2019-03-18T08:05:39.103Z,5.75
2019-03-18T08:10:11.719Z,5.89
2019-03-18T08:16:20.167Z,5.70
2019-03-18T08:20:03.167Z,5.60
2019-03-18T08:22:53.264Z,5.67
2019-03-18T08:23:29.448Z,5.60
2019-03-18T08:24:36.160Z,5.66
2019-03-18T08:25:52.451Z,5.66
2019-03-18T08:40:57.703Z,5.88
2019-03-18T08:41:34.172Z,5.86
2019-03-18T08:42:41.201Z,6.06
2019-03-18T08:45:27.889Z,6.73
2019-03-18T08:48:10.200Z,6.63
2019-03-18T08:52:12.313Z,6.50
2019-03-18T08:52:42.089Z,6.44
2019-03-18T08:54:00.520Z,6.44
2019-03-18T08:54:43.232Z,6.40
2019-03-18T08:55:47.027Z,6.40
2019-03-18T09:00:16.039Z,6.71
2019-03-18T09:00:46.199Z,6.80
2019-03-18T09:53:25.675Z,9.61
2019-03-18T09:54:24.599Z,9.35
2019-03-18T09:55:26.009Z,9.30
2019-03-18T09:56:25.625Z,9.15
2019-03-18T09:57:26.263Z,8.99
2019-03-18T09:58:24.916Z,8.81
2019-03-18T09:59:29.170Z,8.72
2019-03-18T10:00:31.157Z,8.50
2019-03-18T10:01:24.057Z,8.42
2019-03-18T10:02:30.684Z,8.44
2019-03-18T10:03:25.689Z,8.94
2019-03-18T10:04:26.761Z,9.28
2019-03-18T10:05:24.278Z,10.52
2019-03-18T10:06:27.131Z,10.84
2019-03-18T10:08:01.854Z,11.97
2019-03-18T10:08:33.583Z,12.69
2019-03-18T10:09:27.052Z,13.40
2019-03-18T10:10:25.069Z,14.24
2019-03-18T10:11:25.279Z,14.78
2019-03-18T10:12:30.637Z,15.20
2019-03-18T10:15:33.271Z,15.13
2019-03-18T10:16:06.432Z,14.84
2019-03-18T10:17:09.746Z,14.64
2019-03-18T10:18:13.677Z,13.52
2019-03-18T10:23:41.110Z,11.70
2019-03-18T10:24:59.782Z,11.53
2019-03-18T10:25:44.097Z,11.61
2019-03-18T10:27:05.695Z,11.59
2019-03-18T10:27:40.595Z,11.36
2019-03-18T10:28:40.198Z,11.43
2019-03-18T10:31:38.242Z,12.85
2019-03-18T10:32:33.435Z,13.24
2019-03-18T10:36:41.031Z,14.49
2019-03-18T10:39:28.020Z,15.57
2019-03-18T10:47:40.776Z,12.78
2019-03-18T10:52:34.955Z,9.23
2019-03-18T10:53:33.248Z,8.94
2019-03-18T10:56:36.839Z,9.46
2019-03-18T10:58:51.596Z,10.09
2019-03-18T10:59:40.057Z,10.51
2019-03-18T11:00:40.157Z,10.88
2019-03-18T11:01:41.036Z,11.97
2019-03-18T11:02:41.036Z,12.13
2019-03-18T11:04:04.456Z,12.54
2019-03-18T11:04:44.301Z,13.32
2019-03-18T11:05:40.290Z,13.56
2019-03-18T11:06:50.080Z,14.06
2019-03-18T11:07:39.869Z,13.95
2019-03-18T11:08:39.856Z,14.52
2019-03-18T11:09:40.449Z,14.43
2019-03-18T11:10:55.784Z,14.42
2019-03-18T11:11:46.832Z,14.25
2019-03-18T11:12:41.202Z,14.57
2019-03-18T11:15:16.994Z,16.01
2019-03-18T11:16:13.479Z,16.15
2019-03-18T11:17:35.651Z,16.27
2019-03-18T11:18:34.458Z,16.62
2019-03-18T11:19:37.373Z,16.90
2019-03-18T11:20:12.011Z,17.13
2019-03-18T11:21:18.129Z,17.30
2019-03-18T11:22:16.892Z,17.14
2019-03-18T11:23:16.878Z,17.14
2019-03-18T11:24:36.866Z,16.78
2019-03-18T11:25:14.565Z,17.07
2019-03-18T11:26:15.909Z,17.23
2019-03-18T11:27:38.034Z,17.13
2019-03-18T11:30:11.419Z,17.15
2019-03-18T11:31:15.945Z,16.80
2019-03-18T11:31:49.900Z,16.81
2019-03-18T11:32:52.057Z,16.37
2019-03-18T11:56:52.071Z,12.29
2019-03-18T11:57:48.136Z,11.90
2019-03-18T11:58:50.634Z,11.35
2019-03-18T12:00:02.695Z,11.13
2019-03-18T12:00:49.311Z,11.35
2019-03-18T12:01:48.708Z,12.29
2019-03-18T12:03:11.756Z,13.36
2019-03-18T12:03:50.679Z,13.99
2019-03-18T12:05:05.143Z,14.91
2019-03-18T12:05:53.666Z,15.11
2019-03-18T12:06:49.533Z,15.60
2019-03-18T12:07:55.195Z,15.89
2019-03-18T12:09:00.429Z,16.26
2019-03-18T12:09:51.680Z,17.07
2019-03-18T12:10:50.702Z,17.41
2019-03-18T12:11:49.341Z,17.57
2019-03-18T12:12:50.708Z,17.73
2019-03-18T12:13:51.639Z,16.50
2019-03-18T12:15:21.422Z,15.15
2019-03-18T12:16:01.876Z,14.34
2019-03-18T12:16:52.225Z,13.29
2019-03-18T12:17:53.210Z,14.17
2019-03-18T12:18:52.305Z,14.80
2019-03-18T12:19:52.148Z,15.84
2019-03-18T12:20:52.562Z,16.11
2019-03-18T12:21:52.779Z,16.11
2019-03-18T12:22:55.246Z,16.38
2019-03-18T12:23:56.335Z,15.11
2019-03-18T12:24:57.668Z,14.74
2019-03-18T12:26:16.148Z,15.17
2019-03-18T12:27:00.156Z,14.50
2019-03-18T12:27:58.145Z,13.52
2019-03-18T12:28:54.207Z,12.56
2019-03-18T12:29:56.792Z,12.42
2019-03-18T12:30:54.139Z,12.12
2019-03-18T12:31:54.648Z,11.68
2019-03-18T12:32:57.195Z,11.32
2019-03-18T12:33:57.406Z,11.27
2019-03-18T12:34:57.194Z,11.20
2019-03-18T12:35:57.673Z,11.10
2019-03-18T12:36:54.913Z,11.10
2019-03-18T12:37:56.718Z,11.06
2019-03-18T12:38:57.253Z,10.66
2019-03-18T12:40:00.393Z,10.71
2019-03-18T12:40:56.193Z,10.43
2019-03-18T12:41:58.735Z,10.14
2019-03-18T12:42:56.702Z,9.82
2019-03-18T12:43:56.181Z,9.46
2019-03-18T12:44:57.202Z,9.40
2019-03-18T12:45:55.558Z,9.34
2019-03-18T12:46:55.764Z,9.21
2019-03-18T12:47:55.981Z,9.49
2019-03-18T12:48:57.211Z,10.04
2019-03-18T12:49:56.410Z,10.58
2019-03-18T12:51:00.191Z,11.62
2019-03-18T12:51:58.704Z,12.54
2019-03-18T12:52:59.737Z,12.97
2019-03-18T12:53:57.083Z,13.49
2019-03-18T12:54:57.306Z,13.92
2019-03-18T12:55:59.191Z,14.39
2019-03-18T12:56:58.678Z,14.98
2019-03-18T12:57:59.688Z,14.54
2019-03-18T12:58:59.761Z,14.80
2019-03-18T12:59:58.158Z,14.88
2019-03-18T13:01:12.215Z,15.17
2019-03-18T13:02:02.958Z,15.06
2019-03-18T13:03:03.195Z,15.09
2019-03-18T13:04:00.726Z,15.13
2019-03-18T13:05:05.982Z,15.66
2019-03-18T13:06:03.087Z,16.11
2019-03-18T13:07:01.208Z,16.53
2019-03-18T13:08:04.214Z,15.76
2019-03-18T13:09:01.711Z,15.20
2019-03-18T13:10:01.692Z,14.80
2019-03-18T13:11:03.712Z,14.86
2019-03-18T13:12:00.361Z,14.62
2019-03-18T13:13:02.258Z,14.32
2019-03-18T13:14:02.254Z,14.62
2019-03-18T13:15:01.394Z,15.12
2019-03-18T13:16:04.784Z,15.64
2019-03-18T13:17:01.717Z,15.74
2019-03-18T13:18:03.214Z,16.03
2019-03-18T13:19:01.663Z,16.04
2019-03-18T13:20:05.195Z,15.75
2019-03-18T13:21:07.700Z,15.92
2019-03-18T13:22:02.147Z,15.97
2019-03-18T13:23:02.375Z,15.86
2019-03-18T13:24:04.209Z,15.99
2019-03-18T13:25:04.699Z,15.93
2019-03-18T13:26:02.920Z,15.60
2019-03-18T13:27:03.190Z,15.74
2019-03-18T13:28:05.990Z,15.86
2019-03-18T13:29:19.194Z,16.01
2019-03-18T13:30:06.196Z,16.55
2019-03-18T13:31:03.852Z,15.88
2019-03-18T13:32:05.705Z,15.20
2019-03-18T13:33:04.230Z,14.91
2019-03-18T13:34:06.684Z,14.69
2019-03-18T13:35:21.226Z,14.50
2019-03-18T13:36:04.728Z,14.60
2019-03-18T13:37:05.545Z,14.90
2019-03-18T13:38:08.163Z,15.26
2019-03-18T13:39:29.217Z,15.30
2019-03-18T13:40:08.251Z,15.45
2019-03-18T13:41:09.153Z,15.41
2019-03-18T13:42:09.228Z,15.66
2019-03-18T13:43:10.906Z,15.88
2019-03-18T13:44:13.780Z,15.92
2019-03-18T13:45:09.152Z,15.63
2019-03-18T13:46:08.231Z,15.72
2019-03-18T13:47:06.590Z,15.64
2019-03-18T13:48:08.711Z,15.38
2019-03-18T13:49:08.697Z,15.06
2019-03-18T13:50:09.165Z,15.03
2019-03-18T13:51:20.322Z,15.05
2019-03-18T13:52:11.200Z,15.01
2019-03-18T13:53:10.706Z,14.68
2019-03-18T13:54:11.201Z,14.20
2019-03-18T13:55:09.737Z,13.87
2019-03-18T13:56:10.215Z,13.80
2019-03-18T13:57:16.941Z,14.10
2019-03-18T13:58:11.659Z,14.53
2019-03-18T13:59:08.634Z,14.93
2019-03-18T14:00:08.857Z,15.06
2019-03-18T14:01:10.111Z,14.64
2019-03-18T14:02:13.756Z,14.72
2019-03-18T14:03:09.917Z,14.56
2019-03-18T14:04:11.195Z,14.91
2019-03-18T14:05:11.201Z,15.12
2019-03-18T14:06:09.794Z,15.19
2019-03-18T14:07:11.787Z,15.48
2019-03-18T14:08:17.206Z,15.52
2019-03-18T14:09:12.219Z,15.54
2019-03-18T14:10:13.037Z,15.45
2019-03-18T14:11:10.893Z,15.51
2019-03-18T14:12:12.157Z,15.85
2019-03-18T14:13:14.656Z,16.11
2019-03-18T14:14:12.275Z,16.30
2019-03-18T14:15:15.230Z,16.45
2019-03-18T14:16:27.202Z,16.22
2019-03-18T14:17:13.707Z,16.37
2019-03-18T14:18:13.708Z,16.06
2019-03-18T14:19:27.725Z,16.09
2019-03-18T14:20:16.204Z,15.94
2019-03-18T14:21:12.535Z,15.48
2019-03-18T14:22:29.503Z,15.03
2019-03-18T14:23:15.380Z,15.46
2019-03-18T14:24:14.708Z,15.68
2019-03-18T14:25:15.212Z,15.99
2019-03-18T14:26:18.126Z,15.84
2019-03-18T14:27:15.252Z,15.66
2019-03-18T14:28:14.390Z,15.08
2019-03-18T14:29:15.705Z,14.72
2019-03-18T14:30:37.161Z,14.35
2019-03-18T14:31:18.153Z,14.01
2019-03-18T14:32:15.525Z,14.04
2019-03-18T14:33:14.744Z,14.20
2019-03-18T14:35:51.620Z,14.01
2019-03-18T14:36:51.667Z,14.17
2019-03-18T14:37:47.372Z,13.91
2019-03-18T14:38:47.448Z,13.77
2019-03-18T14:39:51.666Z,13.80
2019-03-18T14:40:52.874Z,13.96
2019-03-18T14:41:48.007Z,14.19
2019-03-18T14:42:48.182Z,14.32
2019-03-18T14:43:48.410Z,14.35
2019-03-18T14:44:52.099Z,14.34
2019-03-18T14:45:53.422Z,14.49
2019-03-18T14:46:48.969Z,14.34
2019-03-18T14:47:57.064Z,14.24
2019-03-18T14:48:51.099Z,14.50
2019-03-18T14:49:49.444Z,14.72
2019-03-18T14:50:50.864Z,14.75
2019-03-18T14:51:49.945Z,13.99
2019-03-18T14:52:50.036Z,13.63
2019-03-18T14:53:55.141Z,13.29
2019-03-18T14:54:52.103Z,13.09
2019-03-18T14:55:51.547Z,12.97
2019-03-18T14:56:58.618Z,13.09
2019-03-18T14:57:54.604Z,12.96
2019-03-18T14:58:52.606Z,12.77
2019-03-18T14:59:53.120Z,12.44
2019-03-18T15:00:51.321Z,12.23
2019-03-18T15:01:51.535Z,12.09
2019-03-18T15:02:54.613Z,11.62
2019-03-18T15:03:52.947Z,11.50
2019-03-18T15:04:56.103Z,11.43
2019-03-18T15:05:52.375Z,11.35
2019-03-18T15:06:52.560Z,11.43
2019-03-18T15:07:52.655Z,11.34
2019-03-18T15:08:52.870Z,11.32
2019-03-18T15:09:53.086Z,11.32
2019-03-18T15:10:53.286Z,11.27
2019-03-18T15:11:53.513Z,11.27
2019-03-18T15:12:54.778Z,11.20
2019-03-18T15:13:55.682Z,11.28
2019-03-18T15:14:54.980Z,11.41
2019-03-18T15:15:54.187Z,11.31
2019-03-18T15:16:58.140Z,11.10
2019-03-18T15:17:54.609Z,11.03
2019-03-18T15:18:54.860Z,11.11
2019-03-18T15:19:55.077Z,11.19
2019-03-18T15:20:55.277Z,11.16
2019-03-18T15:21:58.557Z,11.20
2019-03-18T15:22:55.695Z,11.09
2019-03-18T15:23:55.910Z,11.16
2019-03-18T15:24:59.162Z,11.19
2019-03-18T15:25:56.345Z,11.10
2019-03-18T15:26:56.553Z,10.91
2019-03-18T15:27:56.757Z,10.91
2019-03-18T15:28:58.610Z,10.88
2019-03-18T15:30:01.804Z,10.77
2019-03-18T15:30:59.137Z,10.86
2019-03-18T15:31:57.584Z,10.74
2019-03-18T15:32:57.789Z,10.81
2019-03-18T15:33:58.021Z,10.83
2019-03-18T15:34:58.243Z,10.65
2019-03-18T15:35:58.339Z,10.59
2019-03-18T15:36:58.554Z,10.56
2019-03-18T15:38:00.646Z,10.55
2019-03-18T15:39:00.616Z,10.73
2019-03-18T15:40:00.618Z,10.56
2019-03-18T15:40:59.255Z,10.60
2019-03-18T15:42:01.107Z,10.65
2019-03-18T15:42:59.576Z,10.55
2019-03-18T15:43:59.788Z,10.59
2019-03-18T15:45:03.617Z,10.58
2019-03-18T15:46:02.180Z,10.58
2019-03-18T15:47:00.401Z,10.66
2019-03-18T15:48:00.623Z,10.66
2019-03-18T15:49:02.624Z,10.78
2019-03-18T15:50:00.941Z,10.76
2019-03-18T15:51:01.145Z,10.74
2019-03-18T15:52:11.019Z,10.77
2019-03-18T15:53:03.105Z,10.70
2019-03-18T15:54:03.602Z,10.56
2019-03-18T15:55:01.875Z,10.58
2019-03-18T15:56:02.059Z,10.52
2019-03-18T15:57:02.267Z,10.44
2019-03-18T15:58:02.478Z,10.34
2019-03-18T15:59:02.679Z,10.47
2019-03-18T16:00:02.924Z,10.37
2019-03-18T16:01:06.694Z,10.39
2019-03-18T16:02:03.231Z,10.32
2019-03-18T16:03:07.115Z,10.32
2019-03-18T16:04:05.109Z,10.24
2019-03-18T16:05:04.701Z,10.04
2019-03-18T16:06:03.973Z,10.18
2019-03-18T16:07:04.035Z,10.24
2019-03-18T16:08:06.131Z,10.30
2019-03-18T16:09:04.494Z,10.36
2019-03-18T16:10:06.621Z,10.42
2019-03-18T16:11:04.838Z,10.58
2019-03-18T16:12:07.609Z,10.47
2019-03-18T16:13:06.602Z,10.65
2019-03-18T16:14:05.188Z,10.65
2019-03-18T16:15:05.378Z,10.63
2019-03-18T16:16:05.592Z,10.47
2019-03-18T16:17:08.638Z,10.53
2019-03-18T16:18:05.969Z,10.39
2019-03-18T16:19:06.182Z,10.30
2019-03-18T16:20:06.381Z,10.03
2019-03-18T16:21:06.603Z,10.04
2019-03-18T16:22:22.764Z,10.07
2019-03-18T16:23:07.968Z,10.17
2019-03-18T16:24:09.104Z,10.12
2019-03-18T16:25:11.711Z,10.12
2019-03-18T16:35:20.318Z,10.91
2019-03-18T16:36:20.321Z,10.88
2019-03-18T16:37:18.897Z,10.84
2019-03-18T16:38:19.538Z,10.86
2019-03-18T16:39:19.328Z,10.88
2019-03-18T16:40:19.494Z,10.94
2019-03-18T16:41:19.747Z,10.92
2019-03-18T16:42:21.872Z,11.02
2019-03-18T16:43:26.825Z,11.16
2019-03-18T16:44:22.910Z,11.06
2019-03-18T16:45:22.334Z,11.11
2019-03-18T16:46:22.330Z,10.76
2019-03-18T16:47:22.318Z,10.89
2019-03-18T16:48:22.820Z,10.84
2019-03-18T16:49:21.029Z,10.63
2019-03-18T16:50:21.237Z,10.58
2019-03-18T16:51:22.439Z,10.53
2019-03-18T16:52:21.632Z,10.33
2019-03-18T16:53:21.846Z,10.09
2019-03-18T16:54:23.829Z,9.96
2019-03-18T16:55:22.289Z,9.85
2019-03-18T16:56:22.487Z,9.82
2019-03-18T16:57:22.704Z,9.67
2019-03-18T16:58:22.903Z,9.68
2019-03-18T16:59:24.140Z,9.61
2019-03-18T17:00:24.321Z,9.57
2019-03-18T17:01:23.540Z,9.49
2019-03-18T17:02:23.651Z,9.40
2019-03-18T17:03:25.815Z,9.32
2019-03-18T17:04:45.025Z,9.23
2019-03-18T17:05:24.205Z,9.06
2019-03-18T17:06:24.405Z,9.10
2019-03-18T17:07:24.613Z,9.04
2019-03-18T17:08:24.828Z,9.01
2019-03-18T17:09:24.937Z,8.97
2019-03-18T17:10:27.836Z,8.90
2019-03-18T17:11:27.227Z,8.83
2019-03-18T17:12:25.439Z,8.73
2019-03-18T17:13:25.641Z,8.69
2019-03-18T17:14:27.821Z,8.65
2019-03-18T17:15:26.037Z,8.60
2019-03-18T17:16:27.246Z,8.44
2019-03-18T17:17:32.495Z,8.50
2019-03-18T17:18:28.331Z,8.47
2019-03-18T17:19:26.903Z,8.25
2019-03-18T17:20:27.103Z,8.30
2019-03-18T17:21:28.821Z,8.26
2019-03-18T17:22:29.025Z,8.21
2019-03-18T17:23:29.341Z,8.17
2019-03-18T17:24:29.825Z,8.10
2019-03-18T17:25:29.824Z,7.99
2019-03-18T17:26:28.275Z,7.90
2019-03-18T17:27:28.490Z,7.92
2019-03-18T17:28:29.726Z,7.94
2019-03-18T17:29:28.823Z,7.93
2019-03-18T17:30:29.046Z,7.92
2019-03-18T17:31:30.844Z,7.89
2019-03-18T17:32:30.305Z,7.90
2019-03-18T17:33:30.294Z,7.71
2019-03-18T17:34:31.324Z,7.81
2019-03-18T17:35:31.856Z,7.75
2019-03-18T17:36:30.772Z,7.72
2019-03-18T17:37:30.242Z,7.66
2019-03-18T17:38:32.323Z,7.53
2019-03-18T17:39:32.335Z,7.49
2019-03-18T17:40:32.317Z,7.60
2019-03-18T17:41:36.849Z,7.49
2019-03-18T17:42:31.214Z,7.49
2019-03-18T17:43:36.015Z,7.34
2019-03-18T17:44:36.092Z,7.26
2019-03-18T17:45:33.345Z,7.31
2019-03-18T17:46:31.941Z,7.23
2019-03-18T17:47:33.827Z,7.08
2019-03-18T17:48:33.851Z,7.23
2019-03-18T17:49:34.333Z,7.09
2019-03-18T17:50:36.316Z,7.09
2019-03-18T17:51:33.461Z,7.05
2019-03-18T17:52:33.012Z,7.20
2019-03-18T17:53:33.109Z,6.99
2019-03-18T17:54:33.324Z,6.89
2019-03-18T17:55:35.317Z,6.81
2019-03-18T17:56:37.337Z,6.77
2019-03-18T17:57:34.810Z,6.79
2019-03-18T17:58:35.818Z,6.80
2019-03-18T17:59:37.814Z,6.72
2019-03-18T18:00:35.820Z,6.73
2019-03-18T18:01:36.361Z,6.62
2019-03-18T18:02:34.541Z,6.53
2019-03-18T18:03:36.350Z,6.46
2019-03-18T18:04:34.937Z,6.56
2019-03-18T18:05:38.827Z,6.51
2019-03-18T18:06:41.870Z,6.44
2019-03-18T18:07:35.444Z,6.46
2019-03-18T18:08:35.694Z,6.41
2019-03-18T18:09:51.318Z,6.40
2019-03-18T18:10:36.009Z,6.35
2019-03-18T18:11:36.221Z,6.30
2019-03-18T18:12:36.457Z,6.33
2019-03-18T18:13:38.350Z,6.29
2019-03-18T18:14:40.620Z,6.35
2019-03-18T18:15:38.846Z,6.28
2019-03-18T18:16:38.854Z,6.19
2019-03-18T18:17:38.820Z,6.21
2019-03-18T18:18:38.558Z,6.09
2019-03-18T18:19:39.329Z,6.10
2019-03-18T18:20:41.330Z,6.07
2019-03-18T18:21:37.939Z,6.10
2019-03-18T18:22:41.869Z,6.06
2019-03-18T18:23:39.818Z,6.00
2019-03-18T18:24:39.821Z,6.03
2019-03-18T18:25:42.337Z,6.06
2019-03-18T18:26:45.325Z,6.00
2019-03-18T18:27:38.641Z,6.03
2019-03-18T18:28:41.640Z,5.95
2019-03-18T18:29:39.008Z,5.96
2019-03-18T18:30:42.819Z,5.86
2019-03-18T18:31:39.271Z,5.71
2019-03-18T18:32:39.474Z,5.74
2019-03-18T18:33:41.338Z,5.82
2019-03-18T18:35:00.906Z,5.83
2019-03-18T18:35:41.819Z,5.73
2019-03-18T18:36:40.274Z,5.74
2019-03-18T18:37:42.321Z,5.71
2019-03-18T18:38:48.354Z,5.75
2019-03-18T18:39:43.430Z,5.70
2019-03-18T18:40:48.841Z,5.73
2019-03-18T18:41:41.179Z,5.70
2019-03-18T18:42:43.351Z,5.67
2019-03-18T18:43:41.517Z,5.64
2019-03-18T18:44:43.323Z,5.73
2019-03-18T18:45:44.030Z,5.68
2019-03-18T18:46:43.822Z,5.64
2019-03-18T18:47:43.823Z,5.52
2019-03-18T18:48:42.484Z,5.52
2019-03-18T18:49:48.344Z,5.35
2019-03-18T18:50:44.321Z,5.41
2019-03-18T18:51:42.768Z,5.35
2019-03-18T18:52:46.828Z,5.37
2019-03-18T18:53:43.157Z,5.41
2019-03-18T18:54:44.408Z,5.40
2019-03-18T18:55:44.501Z,5.37
2019-03-18T18:56:47.337Z,5.32
2019-03-18T18:57:50.821Z,5.41
2019-03-18T18:58:44.176Z,5.28
2019-03-18T18:59:45.273Z,5.23
2019-03-18T19:00:46.326Z,5.27
2019-03-18T19:01:48.322Z,5.22
2019-03-18T19:02:44.806Z,5.28
2019-03-18T19:03:46.046Z,5.28
2019-03-18T19:04:45.139Z,5.20
2019-03-18T19:06:01.323Z,5.19
2019-03-18T19:06:46.539Z,5.28
2019-03-18T19:07:52.330Z,5.25
2019-03-18T19:08:45.823Z,5.37
2019-03-18T19:09:47.817Z,5.30
2019-03-18T19:10:47.840Z,5.31
2019-03-18T19:11:47.320Z,5.30
2019-03-18T19:12:47.395Z,5.37
2019-03-18T19:13:49.273Z,5.37
2019-03-18T19:14:50.817Z,5.35
2019-03-18T19:16:02.873Z,5.35
2019-03-18T19:16:50.821Z,5.31
2019-03-18T19:17:47.421Z,5.37
2019-03-18T19:18:50.378Z,5.35
2019-03-18T19:19:49.321Z,5.35
2019-03-18T19:20:49.816Z,5.35
2019-03-18T19:21:48.031Z,5.43
2019-03-18T19:22:51.827Z,5.32
2019-03-18T19:23:48.435Z,5.32
2019-03-18T19:24:50.351Z,5.38
2019-03-18T19:25:49.794Z,5.32
2019-03-18T19:26:50.819Z,5.35
2019-03-18T19:27:49.149Z,5.32
2019-03-18T19:28:49.351Z,5.35
2019-03-18T19:29:50.579Z,5.43
2019-03-18T19:30:51.298Z,5.38
2019-03-18T19:31:54.791Z,5.22
2019-03-18T19:32:50.791Z,5.14
2019-03-18T19:33:51.136Z,5.17
2019-03-18T19:34:54.320Z,5.01
2019-03-18T19:35:50.538Z,5.01
2019-03-18T19:36:52.329Z,5.07
2019-03-18T19:37:50.945Z,4.94
2019-03-18T19:38:52.820Z,4.92
2019-03-18T19:39:57.849Z,4.98
2019-03-18T19:40:55.315Z,4.77
2019-03-18T19:41:53.324Z,4.94
2019-03-18T19:42:56.303Z,4.69
2019-03-18T19:43:55.819Z,4.59
2019-03-18T19:44:52.143Z,4.51
2019-03-18T19:45:53.802Z,4.52
2019-03-18T19:46:52.532Z,4.46
2019-03-18T19:47:56.754Z,4.50
2019-03-18T19:49:00.844Z,4.25
2019-03-18T19:50:08.836Z,4.25
2019-03-18T19:50:54.862Z,4.22
2019-03-18T19:51:53.446Z,4.18
2019-03-18T19:52:53.681Z,4.10
2019-03-18T19:53:53.909Z,4.08
2019-03-18T19:54:54.990Z,3.90
2019-03-18T19:55:54.836Z,3.89
2019-03-18T19:56:54.531Z,3.80
2019-03-18T19:57:56.370Z,3.86
2019-03-18T19:58:55.833Z,3.79
2019-03-18T19:59:55.136Z,3.82
2019-03-18T20:00:57.629Z,3.83
2019-03-18T20:01:57.317Z,3.64
2019-03-18T20:02:57.334Z,3.79
2019-03-18T20:04:01.340Z,3.83
2019-03-18T20:04:57.334Z,3.64
2019-03-18T20:06:01.841Z,3.72
2019-03-18T20:06:56.170Z,3.64
2019-03-18T20:07:59.368Z,3.60
2019-03-18T20:08:56.576Z,3.79
2019-03-18T20:09:58.385Z,3.79
2019-03-18T20:11:05.378Z,3.71
2019-03-18T20:11:58.121Z,3.76
2019-03-18T20:12:57.233Z,3.72
2019-03-18T20:13:58.819Z,3.78
2019-03-18T20:15:20.285Z,3.62
2019-03-18T20:15:59.372Z,3.68
2019-03-18T20:16:59.094Z,3.71
2019-03-18T20:18:01.860Z,3.70
2019-03-18T20:19:04.826Z,3.80
2019-03-18T20:19:59.410Z,3.65
2019-03-18T20:20:58.631Z,3.75
2019-03-18T20:22:00.783Z,3.60
2019-03-18T20:22:59.029Z,3.64
2019-03-18T20:24:01.030Z,3.79
2019-03-18T20:25:00.390Z,3.71
2019-03-18T20:26:01.321Z,3.80
2019-03-18T20:26:59.643Z,3.76
2019-03-18T20:28:01.867Z,3.79
2019-03-18T20:29:01.830Z,3.79
2019-03-18T20:30:04.802Z,3.76
2019-03-18T20:31:11.502Z,3.60
2019-03-18T20:32:00.702Z,3.65
2019-03-18T20:33:01.939Z,3.78
2019-03-18T20:34:08.866Z,3.67
2019-03-18T20:35:02.820Z,3.67
2019-03-18T20:36:01.300Z,3.68
2019-03-18T20:37:17.322Z,3.71
2019-03-18T20:38:03.349Z,3.65
2019-03-18T20:39:05.315Z,3.62
2019-03-18T20:40:03.820Z,3.72
2019-03-18T20:41:03.781Z,3.71
2019-03-18T20:42:02.140Z,3.68
2019-03-18T20:43:03.315Z,3.70
2019-03-18T20:44:05.280Z,3.60
2019-03-18T20:45:06.318Z,3.60
2019-03-18T20:46:23.670Z,3.61
2019-03-18T20:47:04.780Z,3.54
2019-03-18T20:48:08.847Z,3.60
2019-03-18T20:49:09.324Z,3.58
2019-03-18T20:50:03.423Z,3.50
2019-03-18T20:51:05.339Z,3.57
2019-03-18T20:52:03.858Z,3.44
2019-03-18T20:53:04.859Z,3.54
2019-03-18T20:54:11.960Z,3.57
2019-03-18T20:55:07.818Z,3.58
2019-03-18T20:56:11.822Z,3.50
2019-03-18T20:57:12.336Z,3.64
2019-03-18T20:58:06.337Z,3.58
2019-03-18T20:59:08.323Z,3.64
2019-03-18T21:00:08.827Z,3.53
2019-03-18T21:01:05.081Z,3.64
2019-03-18T21:02:05.174Z,3.68
2019-03-18T21:03:07.363Z,3.67
2019-03-18T21:04:05.564Z,3.65
2019-03-18T21:05:07.323Z,3.71
2019-03-18T21:06:09.315Z,3.72
2019-03-18T21:07:05.917Z,3.71
2019-03-18T21:08:06.052Z,3.75
2019-03-18T21:09:06.143Z,3.85
2019-03-18T21:10:11.107Z,3.76
2019-03-18T21:11:06.539Z,3.79
2019-03-18T21:12:06.621Z,3.83
2019-03-18T21:13:08.380Z,3.75
2019-03-18T21:14:07.004Z,3.79
2019-03-18T21:15:29.828Z,3.79
2019-03-18T21:16:07.384Z,3.78
2019-03-18T21:17:09.367Z,3.83
2019-03-18T21:18:10.288Z,3.88
2019-03-18T21:19:13.839Z,3.85
2019-03-18T21:20:08.224Z,3.90
2019-03-18T21:21:10.316Z,3.80
2019-03-18T21:22:10.326Z,3.82
2019-03-18T21:23:10.322Z,3.76
2019-03-18T21:24:10.820Z,3.90
2019-03-18T21:25:16.816Z,3.86
2019-03-18T21:26:10.829Z,3.78
2019-03-18T21:27:12.370Z,3.79
2019-03-18T21:28:17.336Z,3.79
2019-03-18T21:29:11.319Z,3.70
2019-03-18T21:30:11.848Z,3.82
2019-03-18T21:31:14.785Z,3.71
2019-03-18T21:32:11.820Z,3.76
2019-03-18T21:33:10.515Z,3.75
2019-03-18T21:34:12.319Z,3.60
2019-03-18T21:35:10.775Z,3.68
2019-03-18T21:36:12.368Z,3.58
2019-03-18T21:37:17.839Z,3.76
2019-03-18T21:38:12.308Z,3.61
2019-03-18T21:39:13.337Z,3.64
2019-03-18T21:40:12.690Z,3.62
2019-03-18T21:41:15.877Z,3.58
2019-03-18T21:42:13.852Z,3.46
2019-03-18T21:43:12.331Z,3.46
2019-03-18T21:44:13.568Z,3.39
2019-03-18T21:45:16.321Z,3.40
2019-03-18T21:46:13.778Z,3.33
2019-03-18T21:47:13.001Z,3.44
2019-03-18T21:48:28.817Z,3.28
2019-03-18T21:49:13.386Z,3.21
2019-03-18T21:50:29.315Z,3.31
2019-03-18T21:51:36.854Z,3.25
2019-03-18T21:52:20.820Z,3.31
2019-03-18T21:53:14.149Z,3.25
2019-03-18T21:54:14.350Z,3.31
2019-03-18T21:55:16.318Z,3.31
2019-03-18T21:56:22.317Z,3.28
2019-03-18T21:57:15.921Z,3.27
2019-03-18T21:58:16.815Z,3.33
2019-03-18T21:59:15.169Z,3.27
2019-03-18T22:00:17.327Z,3.13
2019-03-18T22:01:15.548Z,3.09
2019-03-18T22:02:21.330Z,2.95
2019-03-18T22:03:17.771Z,2.92
2019-03-18T22:04:17.847Z,2.88
2019-03-18T22:05:19.819Z,2.88
2019-03-18T22:06:16.520Z,2.79
2019-03-18T22:07:18.326Z,2.71
2019-03-18T22:08:18.879Z,2.74
2019-03-18T22:09:32.831Z,2.70
2019-03-18T22:10:18.154Z,2.64
2019-03-18T22:11:18.266Z,2.66
2019-03-18T22:12:17.476Z,2.61
2019-03-18T22:13:29.548Z,2.66
2019-03-18T22:14:20.855Z,2.70
2019-03-18T22:15:40.816Z,2.71
2019-03-18T22:16:25.834Z,2.64
2019-03-18T22:17:20.326Z,2.56
2019-03-18T22:18:22.315Z,2.58
2019-03-18T22:19:34.343Z,2.59
2019-03-18T22:20:18.817Z,2.61
2019-03-18T22:21:18.979Z,2.58
2019-03-18T22:22:20.862Z,2.59
2019-03-18T22:23:21.777Z,2.56
2019-03-18T22:24:21.282Z,2.67
2019-03-18T22:25:21.316Z,2.63
2019-03-18T22:26:19.778Z,2.63
2019-03-18T22:27:40.982Z,2.61
2019-03-18T22:28:20.190Z,2.63
2019-03-18T22:29:21.480Z,2.53
2019-03-18T22:30:26.547Z,2.63
2019-03-18T22:31:24.316Z,2.61
2019-03-18T22:32:24.842Z,2.56
2019-03-18T22:33:36.820Z,2.59
2019-03-18T22:34:22.777Z,2.73
2019-03-18T22:35:22.122Z,2.73
2019-03-18T22:36:23.064Z,2.56
2019-03-18T22:37:23.318Z,2.53
2019-03-18T22:38:21.633Z,2.67
2019-03-18T22:39:25.817Z,2.46
2019-03-18T22:40:23.819Z,2.41
2019-03-18T22:41:23.819Z,2.48
2019-03-18T22:42:22.279Z,2.56
2019-03-18T22:43:26.314Z,2.41
2019-03-18T22:44:24.338Z,2.44
2019-03-18T22:45:23.821Z,2.37
2019-03-18T22:46:23.543Z,2.35
2019-03-18T22:47:23.163Z,2.31
2019-03-18T22:48:24.818Z,2.16
2019-03-18T22:49:23.431Z,2.12
2019-03-18T22:50:23.529Z,2.12
2019-03-18T22:51:25.321Z,2.08
2019-03-18T22:52:26.821Z,1.93
2019-03-18T22:53:39.974Z,1.97
2019-03-18T22:54:55.579Z,2.04
2019-03-18T22:55:24.378Z,1.85
2019-03-18T22:56:26.315Z,1.89
2019-03-18T22:57:25.644Z,1.90
2019-03-18T22:58:29.769Z,1.93
2019-03-18T22:59:26.854Z,1.90
2019-03-18T23:00:25.220Z,1.93
2019-03-18T23:01:25.307Z,2.02
2019-03-18T23:02:26.306Z,1.79
2019-03-18T23:03:25.631Z,1.83
2019-03-18T23:04:27.818Z,1.89
2019-03-18T23:05:26.016Z,1.87
2019-03-18T23:06:27.786Z,1.93
2019-03-18T23:07:26.377Z,1.85
2019-03-18T23:08:30.336Z,1.82
2019-03-18T23:09:30.321Z,1.90
2019-03-18T23:10:30.861Z,1.90